Hahn, Germany

10:48 AM CEST on September 16, 2014 (GMT +0200)
Hahn | Change Station
CLOSE
Current Station
Airport
Location: Hahn,
Elevation: 1647 ft
Nearby Weather Stations

Elev 1647 ft 49.95 °N, 7.26 °E | Updated 14 minutes ago

Mostly Cloudy
Mostly Cloudy
57 °F
Feels Like 57 °F
N
14
Wind Variable Wind from SE

Today
High -- | Low -- °F
--% Chance of Precip.
Yesterday
High -- | Low -- °F
Precip. -- in
7:07 AM 7:42 PM
Waning Gibbous, 47% visible
Pressure 30.01 in
Visibility 1.2 miles
Clouds Scattered Clouds 100 ft
Mostly Cloudy 300 ft
Dew Point 57 °F
Humidity 100%
Rainfall 0.00 in
Snow Depth Not available.
UV 2 out of 12
Pollen Not available.
Air Quality Not available.
Flu Activity Not available.
SPECI EDFH 160834Z 14012KT 2000 BR SCT001 BKN003 14/14 Q1016

More Conditions Fewer Conditions

Pressure 30.01 in
Visibility 1.2 miles
Clouds Scattered Clouds 100 ft
Mostly Cloudy 300 ft
Dew Point 57 °F
Humidity 100%
Rainfall 0.00 in
Snow Depth Not available.
UV 2 out of 12
Pollen Not available.
Air Quality Not available.
Flu Activity Not available.
SPECI EDFH 160834Z 14012KT 2000 BR SCT001 BKN003 14/14 Q1016

More Conditions Fewer Conditions

10-Day Weather Forecast

Almanac

Astronomy

Sep. 16, 2014 Rise Set
Actual Time 7:07 AM CEST 7:42 PM CEST
Civil Twilight 6:35 AM CEST 8:15 PM CEST
Nautical Twilight 5:56 AM CEST 8:53 PM CEST
Astronomical Twilight 5:16 AM CEST 9:34 PM CEST
Moon No Moon Rise 3:18 PM CEST
Length of Visible Light 13h 39m
Length of Day
12h 34m
Tomorrow will be 3m 42s shorter.
Waning Gibbous, 47% of the Moon is Illuminated
Today
Waning Gibbous
Sep 24
New
Oct 1
First Quarter
Oct 8
Full
Oct 15
Last Quarter

Yesterday's Extremes

Country Highs Country Lows

Community

WunderPhotos

Upload Photos

1,753,712 photos uploaded!

WunderBlogs® & News

Nearby

Snow Depth

Not available.

Earthquake Activity

City Distance Mag. Time & Date
No recent earthquake activity has been reported nearby.
Minimum magnitude displayed is 2.5.

Coastal Water Temperatures

Place Temperature
No Stations Reporting

Nearby Weather Stations